sensor_id;sensor_type;location;lat;lon;timestamp;pressure;altitude;pressure_sealevel;temperature;humidity
38912;BME280;28444;48.056;14.408;2023-06-26T00:01:39;97686.78;;;16.84;78.67
38912;BME280;28444;48.056;14.408;2023-06-26T00:04:27;97676.22;;;16.81;78.98
38912;BME280;28444;48.056;14.408;2023-06-26T00:07:13;97685.97;;;16.82;78.99
38912;BME280;28444;48.056;14.408;2023-06-26T00:10:02;97683.78;;;16.80;79.16
38912;BME280;28444;48.056;14.408;2023-06-26T00:12:49;97672.16;;;16.82;79.48
38912;BME280;28444;48.056;14.408;2023-06-26T00:15:36;97675.63;;;16.71;79.34
38912;BME280;28444;48.056;14.408;2023-06-26T00:18:23;97684.50;;;16.69;79.57
38912;BME280;28444;48.056;14.408;2023-06-26T00:21:10;97675.97;;;16.65;79.64
38912;BME280;28444;48.056;14.408;2023-06-26T00:23:57;97682.59;;;16.60;79.74
38912;BME280;28444;48.056;14.408;2023-06-26T00:26:46;97688.22;;;16.50;79.92
38912;BME280;28444;48.056;14.408;2023-06-26T00:29:33;97686.09;;;16.49;79.95
38912;BME280;28444;48.056;14.408;2023-06-26T00:32:20;97684.16;;;16.51;79.93
38912;BME280;28444;48.056;14.408;2023-06-26T00:35:07;97689.91;;;16.44;80.24
38912;BME280;28444;48.056;14.408;2023-06-26T00:37:54;97680.78;;;16.41;80.25
38912;BME280;28444;48.056;14.408;2023-06-26T00:40:41;97685.81;;;16.33;80.62
38912;BME280;28444;48.056;14.408;2023-06-26T00:43:28;97691.09;;;16.29;80.80
38912;BME280;28444;48.056;14.408;2023-06-26T00:46:15;97689.66;;;16.28;81.01
38912;BME280;28444;48.056;14.408;2023-06-26T00:49:03;97687.00;;;16.30;80.64
38912;BME280;28444;48.056;14.408;2023-06-26T00:51:50;97684.25;;;16.30;80.29
38912;BME280;28444;48.056;14.408;2023-06-26T00:54:37;97683.78;;;16.22;80.12
38912;BME280;28444;48.056;14.408;2023-06-26T00:57:24;97684.16;;;16.16;80.58
38912;BME280;28444;48.056;14.408;2023-06-26T01:00:12;97679.91;;;16.03;80.74
38912;BME280;28444;48.056;14.408;2023-06-26T01:02:59;97674.88;;;16.11;80.58
38912;BME280;28444;48.056;14.408;2023-06-26T01:05:48;97675.13;;;16.04;80.38
38912;BME280;28444;48.056;14.408;2023-06-26T01:08:38;97681.25;;;16.02;80.52
38912;BME280;28444;48.056;14.408;2023-06-26T01:11:26;97681.81;;;16.01;80.76
38912;BME280;28444;48.056;14.408;2023-06-26T01:14:13;97684.97;;;16.07;80.52
38912;BME280;28444;48.056;14.408;2023-06-26T01:17:01;97668.41;;;16.07;80.47
38912;BME280;28444;48.056;14.408;2023-06-26T01:19:48;97658.72;;;16.06;81.08
38912;BME280;28444;48.056;14.408;2023-06-26T01:26:21;97670.06;;;16.00;81.58
38912;BME280;28444;48.056;14.408;2023-06-26T01:29:09;97662.16;;;15.95;81.45
38912;BME280;28444;48.056;14.408;2023-06-26T01:31:57;97671.72;;;15.82;82.00
38912;BME280;28444;48.056;14.408;2023-06-26T01:34:45;97674.22;;;15.78;82.59
38912;BME280;28444;48.056;14.408;2023-06-26T01:37:32;97666.91;;;15.71;82.78
38912;BME280;28444;48.056;14.408;2023-06-26T01:40:19;97659.97;;;15.70;82.96
38912;BME280;28444;48.056;14.408;2023-06-26T01:46:24;97660.38;;;15.54;83.78
38912;BME280;28444;48.056;14.408;2023-06-26T01:55:31;97660.47;;;15.56;83.90
38912;BME280;28444;48.056;14.408;2023-06-26T01:58:24;97654.72;;;15.52;83.96
38912;BME280;28444;48.056;14.408;2023-06-26T02:01:12;97646.41;;;15.40;84.96
38912;BME280;28444;48.056;14.408;2023-06-26T02:03:59;97645.94;;;15.44;84.87
38912;BME280;28444;48.056;14.408;2023-06-26T02:06:46;97641.75;;;15.43;84.67
38912;BME280;28444;48.056;14.408;2023-06-26T02:09:33;97646.19;;;15.48;83.79
38912;BME280;28444;48.056;14.408;2023-06-26T02:12:20;97640.69;;;15.48;83.35
38912;BME280;28444;48.056;14.408;2023-06-26T02:15:08;97640.81;;;15.50;83.09
38912;BME280;28444;48.056;14.408;2023-06-26T02:17:55;97647.06;;;15.51;82.91
38912;BME280;28444;48.056;14.408;2023-06-26T02:20:42;97650.13;;;15.45;83.03
38912;BME280;28444;48.056;14.408;2023-06-26T02:23:30;97652.28;;;15.47;82.93
38912;BME280;28444;48.056;14.408;2023-06-26T02:26:17;97650.88;;;15.57;82.94
38912;BME280;28444;48.056;14.408;2023-06-26T02:29:04;97647.53;;;15.47;83.41
38912;BME280;28444;48.056;14.408;2023-06-26T02:31:51;97658.16;;;15.41;83.01
38912;BME280;28444;48.056;14.408;2023-06-26T02:34:38;97664.00;;;15.35;83.47
38912;BME280;28444;48.056;14.408;2023-06-26T02:37:25;97666.63;;;15.33;83.16
38912;BME280;28444;48.056;14.408;2023-06-26T02:40:12;97676.84;;;15.21;83.65
38912;BME280;28444;48.056;14.408;2023-06-26T02:42:59;97675.22;;;15.06;84.46
38912;BME280;28444;48.056;14.408;2023-06-26T02:45:46;97678.97;;;15.11;84.28
38912;BME280;28444;48.056;14.408;2023-06-26T02:48:33;97681.59;;;15.09;84.47
38912;BME280;28444;48.056;14.408;2023-06-26T02:51:20;97673.94;;;15.07;84.89
38912;BME280;28444;48.056;14.408;2023-06-26T02:54:07;97672.72;;;15.10;84.93
38912;BME280;28444;48.056;14.408;2023-06-26T02:56:54;97666.41;;;15.08;84.49
38912;BME280;28444;48.056;14.408;2023-06-26T02:59:41;97667.16;;;14.99;84.89
38912;BME280;28444;48.056;14.408;2023-06-26T03:02:27;97671.75;;;15.06;84.67
38912;BME280;28444;48.056;14.408;2023-06-26T03:05:14;97677.94;;;15.16;84.52
38912;BME280;28444;48.056;14.408;2023-06-26T03:08:05;97685.06;;;15.09;84.40
38912;BME280;28444;48.056;14.408;2023-06-26T03:10:51;97680.72;;;15.06;84.85
38912;BME280;28444;48.056;14.408;2023-06-26T03:13:38;97685.06;;;15.09;84.52
38912;BME280;28444;48.056;14.408;2023-06-26T03:16:25;97682.47;;;15.11;85.19
38912;BME280;28444;48.056;14.408;2023-06-26T03:19:12;97680.03;;;15.06;85.70
38912;BME280;28444;48.056;14.408;2023-06-26T03:21:59;97680.41;;;15.12;85.41
38912;BME280;28444;48.056;14.408;2023-06-26T03:24:46;97676.34;;;15.13;85.69
38912;BME280;28444;48.056;14.408;2023-06-26T03:27:33;97681.13;;;15.12;85.75
38912;BME280;28444;48.056;14.408;2023-06-26T03:30:20;97679.34;;;15.17;84.91
38912;BME280;28444;48.056;14.408;2023-06-26T03:33:07;97685.13;;;15.21;84.53
38912;BME280;28444;48.056;14.408;2023-06-26T03:35:54;97687.03;;;15.19;84.50
38912;BME280;28444;48.056;14.408;2023-06-26T03:38:41;97686.13;;;15.26;84.39
38912;BME280;28444;48.056;14.408;2023-06-26T03:41:28;97687.31;;;15.23;84.23
38912;BME280;28444;48.056;14.408;2023-06-26T03:44:15;97688.75;;;15.24;84.03
38912;BME280;28444;48.056;14.408;2023-06-26T03:47:03;97692.00;;;15.32;83.53
38912;BME280;28444;48.056;14.408;2023-06-26T03:49:50;97694.28;;;15.35;83.22
38912;BME280;28444;48.056;14.408;2023-06-26T03:52:37;97699.56;;;15.31;83.23
38912;BME280;28444;48.056;14.408;2023-06-26T03:55:24;97693.56;;;15.35;83.31
38912;BME280;28444;48.056;14.408;2023-06-26T03:58:11;97701.97;;;15.37;83.03
38912;BME280;28444;48.056;14.408;2023-06-26T04:00:58;97710.50;;;15.41;83.49
38912;BME280;28444;48.056;14.408;2023-06-26T04:03:45;97706.34;;;15.52;83.22
38912;BME280;28444;48.056;14.408;2023-06-26T04:06:32;97708.00;;;15.45;83.28
38912;BME280;28444;48.056;14.408;2023-06-26T04:09:20;97708.72;;;15.46;83.23
38912;BME280;28444;48.056;14.408;2023-06-26T04:12:07;97699.88;;;15.47;83.69
38912;BME280;28444;48.056;14.408;2023-06-26T04:14:54;97698.66;;;15.50;83.94
38912;BME280;28444;48.056;14.408;2023-06-26T04:17:40;97697.38;;;15.51;83.83
38912;BME280;28444;48.056;14.408;2023-06-26T04:20:27;97693.09;;;15.60;83.78
38912;BME280;28444;48.056;14.408;2023-06-26T04:23:14;97705.25;;;15.67;84.29
38912;BME280;28444;48.056;14.408;2023-06-26T04:26:01;97699.97;;;15.71;85.60
38912;BME280;28444;48.056;14.408;2023-06-26T04:28:49;97701.41;;;15.72;84.99
38912;BME280;28444;48.056;14.408;2023-06-26T04:31:36;97702.13;;;15.72;85.15
38912;BME280;28444;48.056;14.408;2023-06-26T04:34:27;97706.84;;;15.81;84.85
38912;BME280;28444;48.056;14.408;2023-06-26T04:37:14;97705.06;;;15.86;85.21
38912;BME280;28444;48.056;14.408;2023-06-26T04:40:05;97699.78;;;15.90;84.99
38912;BME280;28444;48.056;14.408;2023-06-26T04:42:52;97701.59;;;15.97;84.77
38912;BME280;28444;48.056;14.408;2023-06-26T04:45:39;97697.06;;;16.02;84.90
38912;BME280;28444;48.056;14.408;2023-06-26T04:48:26;97702.84;;;16.06;84.88
38912;BME280;28444;48.056;14.408;2023-06-26T04:51:14;97699.72;;;16.11;85.19
38912;BME280;28444;48.056;14.408;2023-06-26T04:54:01;97705.84;;;16.22;84.50
38912;BME280;28444;48.056;14.408;2023-06-26T04:56:48;97705.50;;;16.27;84.23
38912;BME280;28444;48.056;14.408;2023-06-26T04:59:35;97708.03;;;16.35;84.08
38912;BME280;28444;48.056;14.408;2023-06-26T05:02:21;97708.84;;;16.37;83.63
38912;BME280;28444;48.056;14.408;2023-06-26T05:05:08;97709.13;;;16.42;83.46
38912;BME280;28444;48.056;14.408;2023-06-26T05:07:57;97703.47;;;16.51;83.44
38912;BME280;28444;48.056;14.408;2023-06-26T05:10:44;97704.94;;;16.52;83.82
38912;BME280;28444;48.056;14.408;2023-06-26T05:13:31;97702.16;;;16.52;83.88
38912;BME280;28444;48.056;14.408;2023-06-26T05:16:18;97704.06;;;16.61;83.49
38912;BME280;28444;48.056;14.408;2023-06-26T05:19:05;97705.16;;;16.68;83.40
38912;BME280;28444;48.056;14.408;2023-06-26T05:21:52;97707.22;;;16.79;83.20
38912;BME280;28444;48.056;14.408;2023-06-26T05:24:40;97710.44;;;16.88;83.09
38912;BME280;28444;48.056;14.408;2023-06-26T05:27:27;97700.22;;;17.02;82.89
38912;BME280;28444;48.056;14.408;2023-06-26T05:30:14;97703.31;;;17.08;82.40
38912;BME280;28444;48.056;14.408;2023-06-26T05:33:02;97705.81;;;17.16;82.73
38912;BME280;28444;48.056;14.408;2023-06-26T05:35:51;97698.47;;;17.20;82.98
38912;BME280;28444;48.056;14.408;2023-06-26T05:38:39;97695.56;;;17.30;82.79
38912;BME280;28444;48.056;14.408;2023-06-26T05:41:26;97700.91;;;17.51;82.31
38912;BME280;28444;48.056;14.408;2023-06-26T05:44:13;97693.19;;;17.62;81.03
38912;BME280;28444;48.056;14.408;2023-06-26T05:47:00;97691.44;;;17.68;81.13
38912;BME280;28444;48.056;14.408;2023-06-26T05:49:47;97693.84;;;17.74;80.59
38912;BME280;28444;48.056;14.408;2023-06-26T05:52:34;97693.28;;;17.89;80.05
38912;BME280;28444;48.056;14.408;2023-06-26T05:55:22;97689.66;;;17.98;78.73
38912;BME280;28444;48.056;14.408;2023-06-26T05:58:12;97688.72;;;18.08;77.70
38912;BME280;28444;48.056;14.408;2023-06-26T06:00:59;97693.88;;;18.13;77.53
38912;BME280;28444;48.056;14.408;2023-06-26T06:03:46;97695.13;;;18.24;77.01
38912;BME280;28444;48.056;14.408;2023-06-26T06:06:34;97701.09;;;18.32;77.42
38912;BME280;28444;48.056;14.408;2023-06-26T06:09:21;97703.06;;;18.43;77.79
38912;BME280;28444;48.056;14.408;2023-06-26T06:12:08;97697.53;;;18.57;77.42
38912;BME280;28444;48.056;14.408;2023-06-26T06:14:55;97696.09;;;18.70;76.80
38912;BME280;28444;48.056;14.408;2023-06-26T06:17:43;97705.88;;;18.85;76.16
38912;BME280;28444;48.056;14.408;2023-06-26T06:20:30;97698.06;;;18.95;75.89
38912;BME280;28444;48.056;14.408;2023-06-26T06:23:17;97696.50;;;19.06;75.68
38912;BME280;28444;48.056;14.408;2023-06-26T06:26:04;97704.72;;;19.17;75.73
38912;BME280;28444;48.056;14.408;2023-06-26T06:28:50;97694.72;;;19.26;74.38
38912;BME280;28444;48.056;14.408;2023-06-26T06:31:37;97691.81;;;19.38;74.26
38912;BME280;28444;48.056;14.408;2023-06-26T06:34:24;97686.13;;;19.49;74.68
38912;BME280;28444;48.056;14.408;2023-06-26T06:37:11;97691.06;;;19.65;74.71
38912;BME280;28444;48.056;14.408;2023-06-26T06:39:58;97694.38;;;19.77;71.60
38912;BME280;28444;48.056;14.408;2023-06-26T06:42:46;97692.44;;;19.80;71.15
38912;BME280;28444;48.056;14.408;2023-06-26T06:45:33;97696.81;;;19.85;69.60
38912;BME280;28444;48.056;14.408;2023-06-26T06:48:20;97701.41;;;19.94;69.55
38912;BME280;28444;48.056;14.408;2023-06-26T06:51:07;97698.69;;;19.96;69.86
38912;BME280;28444;48.056;14.408;2023-06-26T06:53:56;97704.19;;;20.10;68.63
38912;BME280;28444;48.056;14.408;2023-06-26T06:56:43;97696.31;;;20.20;69.70
38912;BME280;28444;48.056;14.408;2023-06-26T06:59:30;97698.56;;;20.24;69.75
38912;BME280;28444;48.056;14.408;2023-06-26T07:02:17;97700.28;;;20.31;66.93
38912;BME280;28444;48.056;14.408;2023-06-26T07:05:04;97695.16;;;20.25;67.22
38912;BME280;28444;48.056;14.408;2023-06-26T07:07:51;97691.41;;;20.34;68.72
38912;BME280;28444;48.056;14.408;2023-06-26T07:10:38;97696.53;;;20.56;67.02
38912;BME280;28444;48.056;14.408;2023-06-26T07:13:26;97690.06;;;20.67;66.95
38912;BME280;28444;48.056;14.408;2023-06-26T07:16:13;97683.75;;;20.82;67.15
38912;BME280;28444;48.056;14.408;2023-06-26T07:19:02;97684.34;;;20.97;67.16
38912;BME280;28444;48.056;14.408;2023-06-26T07:21:49;97679.75;;;21.03;68.98
38912;BME280;28444;48.056;14.408;2023-06-26T07:24:36;97690.25;;;21.23;67.00
38912;BME280;28444;48.056;14.408;2023-06-26T07:27:23;97685.13;;;21.33;65.70
38912;BME280;28444;48.056;14.408;2023-06-26T07:30:10;97686.25;;;21.44;66.25
38912;BME280;28444;48.056;14.408;2023-06-26T07:32:57;97685.88;;;21.51;64.95
38912;BME280;28444;48.056;14.408;2023-06-26T07:35:44;97680.75;;;21.46;65.42
38912;BME280;28444;48.056;14.408;2023-06-26T07:38:31;97679.34;;;21.62;65.90
38912;BME280;28444;48.056;14.408;2023-06-26T07:41:19;97683.69;;;21.68;64.39
38912;BME280;28444;48.056;14.408;2023-06-26T07:44:06;97682.69;;;21.77;66.79
38912;BME280;28444;48.056;14.408;2023-06-26T07:46:53;97678.31;;;21.90;63.23
38912;BME280;28444;48.056;14.408;2023-06-26T07:49:40;97678.44;;;21.94;61.97
38912;BME280;28444;48.056;14.408;2023-06-26T07:52:27;97671.66;;;21.99;63.89
38912;BME280;28444;48.056;14.408;2023-06-26T07:55:14;97676.91;;;22.08;63.15
38912;BME280;28444;48.056;14.408;2023-06-26T07:58:01;97672.44;;;22.19;61.43
38912;BME280;28444;48.056;14.408;2023-06-26T08:00:48;97676.22;;;22.28;64.41
38912;BME280;28444;48.056;14.408;2023-06-26T08:03:35;97679.88;;;22.32;61.65
38912;BME280;28444;48.056;14.408;2023-06-26T08:06:22;97674.31;;;22.52;61.06
38912;BME280;28444;48.056;14.408;2023-06-26T08:09:10;97682.38;;;22.64;59.94
38912;BME280;28444;48.056;14.408;2023-06-26T08:11:59;97671.47;;;22.70;60.66
38912;BME280;28444;48.056;14.408;2023-06-26T08:14:46;97678.00;;;22.79;58.42
38912;BME280;28444;48.056;14.408;2023-06-26T08:17:33;97673.00;;;22.75;58.48
38912;BME280;28444;48.056;14.408;2023-06-26T08:20:20;97674.88;;;22.89;58.99
38912;BME280;28444;48.056;14.408;2023-06-26T08:23:07;97672.72;;;23.07;59.49
38912;BME280;28444;48.056;14.408;2023-06-26T08:25:54;97672.00;;;23.28;59.11
38912;BME280;28444;48.056;14.408;2023-06-26T08:28:41;97669.84;;;23.27;57.68
38912;BME280;28444;48.056;14.408;2023-06-26T08:31:28;97670.50;;;23.25;56.91
38912;BME280;28444;48.056;14.408;2023-06-26T08:34:15;97678.16;;;23.25;57.54
38912;BME280;28444;48.056;14.408;2023-06-26T08:37:01;97671.44;;;23.32;58.04
38912;BME280;28444;48.056;14.408;2023-06-26T08:39:49;97671.22;;;23.48;57.98
38912;BME280;28444;48.056;14.408;2023-06-26T08:42:36;97668.38;;;23.68;56.67
38912;BME280;28444;48.056;14.408;2023-06-26T08:45:23;97662.97;;;23.74;59.16
38912;BME280;28444;48.056;14.408;2023-06-26T08:48:10;97665.22;;;23.80;57.75
38912;BME280;28444;48.056;14.408;2023-06-26T08:51:01;97664.88;;;23.91;57.65
38912;BME280;28444;48.056;14.408;2023-06-26T08:53:59;97659.69;;;23.82;56.02
38912;BME280;28444;48.056;14.408;2023-06-26T08:56:49;97656.66;;;23.73;56.22
38912;BME280;28444;48.056;14.408;2023-06-26T08:59:36;97649.31;;;23.84;57.87
38912;BME280;28444;48.056;14.408;2023-06-26T09:02:23;97649.13;;;24.02;58.90
38912;BME280;28444;48.056;14.408;2023-06-26T09:05:11;97654.41;;;24.16;57.98
38912;BME280;28444;48.056;14.408;2023-06-26T09:07:57;97648.44;;;24.27;57.24
38912;BME280;28444;48.056;14.408;2023-06-26T09:10:45;97648.22;;;24.19;54.70
38912;BME280;28444;48.056;14.408;2023-06-26T09:13:33;97642.09;;;24.25;56.74
38912;BME280;28444;48.056;14.408;2023-06-26T09:16:24;97645.38;;;24.41;58.46
38912;BME280;28444;48.056;14.408;2023-06-26T09:19:13;97643.03;;;24.34;54.86
38912;BME280;28444;48.056;14.408;2023-06-26T09:22:01;97630.69;;;24.41;54.79
38912;BME280;28444;48.056;14.408;2023-06-26T09:24:48;97633.69;;;24.49;53.84
38912;BME280;28444;48.056;14.408;2023-06-26T09:27:36;97631.59;;;24.49;54.22
38912;BME280;28444;48.056;14.408;2023-06-26T09:30:23;97629.88;;;24.64;55.25
38912;BME280;28444;48.056;14.408;2023-06-26T09:33:17;97624.03;;;24.80;54.39
38912;BME280;28444;48.056;14.408;2023-06-26T09:36:08;97623.97;;;25.06;52.49
38912;BME280;28444;48.056;14.408;2023-06-26T09:39:03;97629.47;;;25.02;53.32
38912;BME280;28444;48.056;14.408;2023-06-26T09:41:58;97619.53;;;24.97;53.16
38912;BME280;28444;48.056;14.408;2023-06-26T09:44:49;97623.50;;;25.16;50.71
38912;BME280;28444;48.056;14.408;2023-06-26T09:47:44;97624.25;;;25.18;53.44
38912;BME280;28444;48.056;14.408;2023-06-26T09:50:33;97622.50;;;25.33;52.28
38912;BME280;28444;48.056;14.408;2023-06-26T09:53:25;97617.16;;;25.76;50.77
38912;BME280;28444;48.056;14.408;2023-06-26T09:56:16;97615.88;;;25.81;50.20
38912;BME280;28444;48.056;14.408;2023-06-26T09:59:05;97620.81;;;25.82;50.01
38912;BME280;28444;48.056;14.408;2023-06-26T10:01:58;97610.88;;;25.77;49.10
38912;BME280;28444;48.056;14.408;2023-06-26T10:04:46;97614.53;;;25.82;50.47
38912;BME280;28444;48.056;14.408;2023-06-26T10:07:35;97605.84;;;26.04;50.42
38912;BME280;28444;48.056;14.408;2023-06-26T10:10:23;97609.09;;;25.90;48.90
38912;BME280;28444;48.056;14.408;2023-06-26T10:13:15;97609.66;;;25.84;49.04
38912;BME280;28444;48.056;14.408;2023-06-26T10:16:06;97603.25;;;25.80;49.66
38912;BME280;28444;48.056;14.408;2023-06-26T10:18:58;97597.81;;;25.86;48.90
38912;BME280;28444;48.056;14.408;2023-06-26T10:21:48;97591.03;;;25.99;50.30
38912;BME280;28444;48.056;14.408;2023-06-26T10:24:35;97598.38;;;26.14;51.21
38912;BME280;28444;48.056;14.408;2023-06-26T10:27:25;97588.22;;;26.33;47.33
38912;BME280;28444;48.056;14.408;2023-06-26T10:30:18;97580.47;;;26.32;48.41
38912;BME280;28444;48.056;14.408;2023-06-26T10:33:07;97595.81;;;26.29;49.32
38912;BME280;28444;48.056;14.408;2023-06-26T10:36:15;97590.03;;;26.19;46.53
38912;BME280;28444;48.056;14.408;2023-06-26T10:39:06;97582.91;;;26.13;48.80
38912;BME280;28444;48.056;14.408;2023-06-26T10:42:08;97583.75;;;26.20;50.20
38912;BME280;28444;48.056;14.408;2023-06-26T10:44:55;97573.59;;;26.39;48.14
38912;BME280;28444;48.056;14.408;2023-06-26T10:47:57;97568.00;;;26.79;46.55
38912;BME280;28444;48.056;14.408;2023-06-26T10:50:48;97566.31;;;26.62;47.09
38912;BME280;28444;48.056;14.408;2023-06-26T10:53:35;97569.53;;;26.46;47.91
38912;BME280;28444;48.056;14.408;2023-06-26T10:57:01;97571.69;;;26.48;49.96
38912;BME280;28444;48.056;14.408;2023-06-26T10:59:48;97561.72;;;26.40;46.15
38912;BME280;28444;48.056;14.408;2023-06-26T11:03:02;97558.50;;;26.56;46.83
38912;BME280;28444;48.056;14.408;2023-06-26T11:06:19;97548.28;;;26.73;47.46
38912;BME280;28444;48.056;14.408;2023-06-26T11:09:09;97557.28;;;26.68;47.61
38912;BME280;28444;48.056;14.408;2023-06-26T11:11:58;97555.91;;;26.69;46.41
38912;BME280;28444;48.056;14.408;2023-06-26T11:14:48;97556.34;;;26.95;44.68
38912;BME280;28444;48.056;14.408;2023-06-26T11:17:36;97550.75;;;26.97;45.86
38912;BME280;28444;48.056;14.408;2023-06-26T11:20:23;97549.28;;;26.92;46.17
38912;BME280;28444;48.056;14.408;2023-06-26T11:23:11;97543.69;;;26.94;47.72
38912;BME280;28444;48.056;14.408;2023-06-26T11:26:15;97539.47;;;26.93;46.70
38912;BME280;28444;48.056;14.408;2023-06-26T11:29:02;97537.50;;;27.02;45.35
38912;BME280;28444;48.056;14.408;2023-06-26T11:31:58;97546.88;;;27.17;44.43
38912;BME280;28444;48.056;14.408;2023-06-26T11:34:48;97536.31;;;27.15;44.46
38912;BME280;28444;48.056;14.408;2023-06-26T11:37:35;97542.72;;;27.22;45.10
38912;BME280;28444;48.056;14.408;2023-06-26T11:40:23;97538.97;;;27.07;43.68
38912;BME280;28444;48.056;14.408;2023-06-26T11:43:13;97541.03;;;27.04;46.23
38912;BME280;28444;48.056;14.408;2023-06-26T11:46:01;97530.72;;;27.15;45.22
38912;BME280;28444;48.056;14.408;2023-06-26T11:48:48;97534.31;;;27.22;46.38
38912;BME280;28444;48.056;14.408;2023-06-26T11:51:36;97524.63;;;27.33;45.92
38912;BME280;28444;48.056;14.408;2023-06-26T11:54:26;97521.88;;;27.35;45.67
38912;BME280;28444;48.056;14.408;2023-06-26T11:57:14;97525.41;;;27.38;45.63
38912;BME280;28444;48.056;14.408;2023-06-26T12:00:15;97526.84;;;27.39;44.32
38912;BME280;28444;48.056;14.408;2023-06-26T12:03:02;97521.22;;;27.39;45.98
38912;BME280;28444;48.056;14.408;2023-06-26T12:05:50;97522.09;;;27.53;46.13
38912;BME280;28444;48.056;14.408;2023-06-26T12:08:39;97514.34;;;27.50;44.31
38912;BME280;28444;48.056;14.408;2023-06-26T12:11:27;97517.97;;;27.60;44.20
38912;BME280;28444;48.056;14.408;2023-06-26T12:14:17;97504.06;;;27.71;44.13
38912;BME280;28444;48.056;14.408;2023-06-26T12:17:14;97506.13;;;27.68;44.62
38912;BME280;28444;48.056;14.408;2023-06-26T12:20:01;97506.16;;;27.70;43.01
38912;BME280;28444;48.056;14.408;2023-06-26T12:22:48;97509.56;;;27.60;41.97
38912;BME280;28444;48.056;14.408;2023-06-26T12:25:35;97513.13;;;27.65;43.86
38912;BME280;28444;48.056;14.408;2023-06-26T12:28:22;97506.25;;;27.76;43.62
38912;BME280;28444;48.056;14.408;2023-06-26T12:31:16;97500.72;;;27.82;43.19
38912;BME280;28444;48.056;14.408;2023-06-26T12:34:09;97497.72;;;27.70;43.80
38912;BME280;28444;48.056;14.408;2023-06-26T12:37:01;97498.53;;;27.75;42.45
38912;BME280;28444;48.056;14.408;2023-06-26T12:39:56;97489.34;;;27.72;43.52
38912;BME280;28444;48.056;14.408;2023-06-26T12:42:47;97502.78;;;27.80;42.32
38912;BME280;28444;48.056;14.408;2023-06-26T12:45:38;97493.00;;;27.85;41.64
38912;BME280;28444;48.056;14.408;2023-06-26T12:48:41;97504.38;;;27.99;42.13
38912;BME280;28444;48.056;14.408;2023-06-26T12:51:30;97489.59;;;27.93;41.89
38912;BME280;28444;48.056;14.408;2023-06-26T12:54:18;97494.59;;;28.00;41.19
38912;BME280;28444;48.056;14.408;2023-06-26T12:57:05;97497.38;;;27.98;41.79
38912;BME280;28444;48.056;14.408;2023-06-26T12:59:52;97489.78;;;28.11;41.72
38912;BME280;28444;48.056;14.408;2023-06-26T13:02:39;97470.84;;;28.18;44.19
38912;BME280;28444;48.056;14.408;2023-06-26T13:05:26;97470.47;;;28.50;42.18
38912;BME280;28444;48.056;14.408;2023-06-26T13:08:13;97471.91;;;28.57;44.48
38912;BME280;28444;48.056;14.408;2023-06-26T13:11:03;97476.13;;;28.56;41.17
38912;BME280;28444;48.056;14.408;2023-06-26T13:13:50;97468.28;;;28.42;41.71
38912;BME280;28444;48.056;14.408;2023-06-26T13:16:56;97464.69;;;28.36;42.70
38912;BME280;28444;48.056;14.408;2023-06-26T13:19:43;97467.59;;;28.42;43.56
38912;BME280;28444;48.056;14.408;2023-06-26T13:22:30;97458.50;;;28.47;43.02
38912;BME280;28444;48.056;14.408;2023-06-26T13:25:17;97462.91;;;28.75;43.16
38912;BME280;28444;48.056;14.408;2023-06-26T13:28:04;97453.03;;;28.72;42.32
38912;BME280;28444;48.056;14.408;2023-06-26T13:30:51;97450.97;;;28.72;40.74
38912;BME280;28444;48.056;14.408;2023-06-26T13:33:38;97459.44;;;28.81;42.49
38912;BME280;28444;48.056;14.408;2023-06-26T13:36:25;97447.41;;;28.66;40.30
38912;BME280;28444;48.056;14.408;2023-06-26T13:39:12;97438.25;;;28.67;40.12
38912;BME280;28444;48.056;14.408;2023-06-26T13:42:00;97434.00;;;28.60;41.26
38912;BME280;28444;48.056;14.408;2023-06-26T13:44:47;97436.94;;;28.83;41.64
38912;BME280;28444;48.056;14.408;2023-06-26T13:47:48;97433.44;;;28.86;40.65
38912;BME280;28444;48.056;14.408;2023-06-26T13:50:35;97435.00;;;29.08;40.00
38912;BME280;28444;48.056;14.408;2023-06-26T13:53:40;97432.06;;;28.87;39.82
38912;BME280;28444;48.056;14.408;2023-06-26T13:56:26;97427.13;;;28.86;40.65
38912;BME280;28444;48.056;14.408;2023-06-26T13:59:13;97433.34;;;28.68;41.47
38912;BME280;28444;48.056;14.408;2023-06-26T14:02:01;97425.47;;;28.50;41.36
38912;BME280;28444;48.056;14.408;2023-06-26T14:04:48;97428.34;;;28.56;42.24
38912;BME280;28444;48.056;14.408;2023-06-26T14:07:35;97431.28;;;28.76;41.57
38912;BME280;28444;48.056;14.408;2023-06-26T14:10:23;97430.59;;;28.76;41.05
38912;BME280;28444;48.056;14.408;2023-06-26T14:13:10;97418.69;;;28.90;41.35
38912;BME280;28444;48.056;14.408;2023-06-26T14:15:58;97419.31;;;28.70;42.21
38912;BME280;28444;48.056;14.408;2023-06-26T14:18:45;97419.00;;;28.29;41.55
38912;BME280;28444;48.056;14.408;2023-06-26T14:21:32;97417.44;;;28.14;41.22
38912;BME280;28444;48.056;14.408;2023-06-26T14:24:20;97411.97;;;28.30;42.32
38912;BME280;28444;48.056;14.408;2023-06-26T14:27:07;97412.81;;;28.47;41.88
38912;BME280;28444;48.056;14.408;2023-06-26T14:29:53;97403.16;;;28.72;41.46
38912;BME280;28444;48.056;14.408;2023-06-26T14:32:40;97398.91;;;28.71;42.15
38912;BME280;28444;48.056;14.408;2023-06-26T14:35:27;97401.13;;;28.91;41.19
38912;BME280;28444;48.056;14.408;2023-06-26T14:38:14;97403.34;;;29.03;41.20
38912;BME280;28444;48.056;14.408;2023-06-26T14:41:01;97399.09;;;29.04;39.98
38912;BME280;28444;48.056;14.408;2023-06-26T14:43:49;97399.81;;;29.02;38.40
38912;BME280;28444;48.056;14.408;2023-06-26T14:46:36;97391.44;;;29.13;38.50
38912;BME280;28444;48.056;14.408;2023-06-26T14:49:23;97389.31;;;29.13;38.59
38912;BME280;28444;48.056;14.408;2023-06-26T14:52:10;97387.19;;;29.14;38.29
38912;BME280;28444;48.056;14.408;2023-06-26T14:54:57;97387.22;;;29.18;38.90